sensor_id;sensor_type;location;lat;lon;timestamp;P1;durP1;ratioP1;P2;durP2;ratioP2
76826;SDS011;65788;52.284;20.890;2023-06-14T00:01:58;4.80;;;2.50;;
76826;SDS011;65788;52.284;20.890;2023-06-14T00:04:25;3.90;;;2.30;;
76826;SDS011;65788;52.284;20.890;2023-06-14T00:06:52;5.00;;;2.70;;
76826;SDS011;65788;52.284;20.890;2023-06-14T00:09:19;4.10;;;2.60;;
76826;SDS011;65788;52.284;20.890;2023-06-14T00:11:45;5.90;;;2.70;;
76826;SDS011;65788;52.284;20.890;2023-06-14T00:14:12;4.30;;;2.20;;
76826;SDS011;65788;52.284;20.890;2023-06-14T00:16:39;3.80;;;2.20;;
76826;SDS011;65788;52.284;20.890;2023-06-14T00:19:08;3.90;;;2.30;;
76826;SDS011;65788;52.284;20.890;2023-06-14T00:21:37;3.60;;;2.40;;
76826;SDS011;65788;52.284;20.890;2023-06-14T00:24:04;3.10;;;2.00;;
76826;SDS011;65788;52.284;20.890;2023-06-14T00:26:31;5.50;;;2.20;;
76826;SDS011;65788;52.284;20.890;2023-06-14T00:28:58;3.80;;;2.10;;
76826;SDS011;65788;52.284;20.890;2023-06-14T00:31:25;3.50;;;1.90;;
76826;SDS011;65788;52.284;20.890;2023-06-14T00:33:52;3.90;;;2.60;;
76826;SDS011;65788;52.284;20.890;2023-06-14T00:36:18;4.60;;;2.50;;
76826;SDS011;65788;52.284;20.890;2023-06-14T00:38:45;5.00;;;2.70;;
76826;SDS011;65788;52.284;20.890;2023-06-14T00:41:12;3.40;;;2.10;;
76826;SDS011;65788;52.284;20.890;2023-06-14T00:43:38;3.50;;;2.20;;
76826;SDS011;65788;52.284;20.890;2023-06-14T00:46:05;3.70;;;2.20;;
76826;SDS011;65788;52.284;20.890;2023-06-14T00:48:32;3.60;;;2.40;;
76826;SDS011;65788;52.284;20.890;2023-06-14T00:50:59;5.10;;;2.30;;
76826;SDS011;65788;52.284;20.890;2023-06-14T00:53:30;3.80;;;2.30;;
76826;SDS011;65788;52.284;20.890;2023-06-14T00:56:00;3.50;;;2.30;;
76826;SDS011;65788;52.284;20.890;2023-06-14T00:58:27;4.10;;;2.20;;
76826;SDS011;65788;52.284;20.890;2023-06-14T01:00:55;4.70;;;2.20;;
76826;SDS011;65788;52.284;20.890;2023-06-14T01:03:22;3.90;;;2.50;;
76826;SDS011;65788;52.284;20.890;2023-06-14T01:05:51;4.40;;;2.20;;
76826;SDS011;65788;52.284;20.890;2023-06-14T01:08:31;3.40;;;2.20;;
76826;SDS011;65788;52.284;20.890;2023-06-14T01:11:14;2.90;;;1.90;;
76826;SDS011;65788;52.284;20.890;2023-06-14T01:13:45;4.30;;;2.40;;
76826;SDS011;65788;52.284;20.890;2023-06-14T01:16:12;5.00;;;2.50;;
76826;SDS011;65788;52.284;20.890;2023-06-14T01:18:40;4.10;;;2.20;;
76826;SDS011;65788;52.284;20.890;2023-06-14T01:21:19;5.30;;;2.40;;
76826;SDS011;65788;52.284;20.890;2023-06-14T01:23:50;4.30;;;2.30;;
76826;SDS011;65788;52.284;20.890;2023-06-14T01:26:21;5.20;;;2.10;;
76826;SDS011;65788;52.284;20.890;2023-06-14T01:28:49;3.60;;;2.30;;
76826;SDS011;65788;52.284;20.890;2023-06-14T01:31:20;3.60;;;2.30;;
76826;SDS011;65788;52.284;20.890;2023-06-14T01:33:48;4.60;;;2.40;;
76826;SDS011;65788;52.284;20.890;2023-06-14T01:36:18;4.00;;;2.50;;
76826;SDS011;65788;52.284;20.890;2023-06-14T01:38:46;3.80;;;2.10;;
76826;SDS011;65788;52.284;20.890;2023-06-14T01:41:16;4.60;;;2.20;;
76826;SDS011;65788;52.284;20.890;2023-06-14T01:43:45;4.60;;;2.10;;
76826;SDS011;65788;52.284;20.890;2023-06-14T01:46:14;3.50;;;2.30;;
76826;SDS011;65788;52.284;20.890;2023-06-14T01:48:42;3.10;;;2.20;;
76826;SDS011;65788;52.284;20.890;2023-06-14T01:51:09;3.60;;;2.50;;
76826;SDS011;65788;52.284;20.890;2023-06-14T01:53:36;3.90;;;2.20;;
76826;SDS011;65788;52.284;20.890;2023-06-14T01:56:03;3.80;;;2.40;;
76826;SDS011;65788;52.284;20.890;2023-06-14T01:58:30;4.00;;;2.50;;
76826;SDS011;65788;52.284;20.890;2023-06-14T02:00:57;3.60;;;2.10;;
76826;SDS011;65788;52.284;20.890;2023-06-14T02:03:24;3.00;;;2.20;;
76826;SDS011;65788;52.284;20.890;2023-06-14T02:05:51;4.60;;;2.70;;
76826;SDS011;65788;52.284;20.890;2023-06-14T02:08:18;3.10;;;2.00;;
76826;SDS011;65788;52.284;20.890;2023-06-14T02:10:45;2.90;;;1.90;;
76826;SDS011;65788;52.284;20.890;2023-06-14T02:13:11;3.10;;;1.70;;
76826;SDS011;65788;52.284;20.890;2023-06-14T02:15:38;4.10;;;2.60;;
76826;SDS011;65788;52.284;20.890;2023-06-14T02:18:05;3.30;;;2.20;;
76826;SDS011;65788;52.284;20.890;2023-06-14T02:20:32;4.30;;;2.00;;
76826;SDS011;65788;52.284;20.890;2023-06-14T02:22:59;4.10;;;2.10;;
76826;SDS011;65788;52.284;20.890;2023-06-14T02:25:26;3.00;;;2.10;;
76826;SDS011;65788;52.284;20.890;2023-06-14T02:27:54;3.20;;;2.20;;
76826;SDS011;65788;52.284;20.890;2023-06-14T02:30:21;2.80;;;2.00;;
76826;SDS011;65788;52.284;20.890;2023-06-14T02:32:48;3.90;;;2.40;;
76826;SDS011;65788;52.284;20.890;2023-06-14T02:35:17;4.60;;;2.10;;
76826;SDS011;65788;52.284;20.890;2023-06-14T02:37:44;4.00;;;2.00;;
76826;SDS011;65788;52.284;20.890;2023-06-14T02:40:11;4.00;;;2.20;;
76826;SDS011;65788;52.284;20.890;2023-06-14T02:42:38;3.40;;;2.20;;
76826;SDS011;65788;52.284;20.890;2023-06-14T02:45:07;3.40;;;2.00;;
76826;SDS011;65788;52.284;20.890;2023-06-14T02:47:35;3.90;;;2.00;;
76826;SDS011;65788;52.284;20.890;2023-06-14T02:50:02;3.00;;;2.10;;
76826;SDS011;65788;52.284;20.890;2023-06-14T02:52:29;3.70;;;2.30;;
76826;SDS011;65788;52.284;20.890;2023-06-14T02:54:55;3.40;;;2.30;;
76826;SDS011;65788;52.284;20.890;2023-06-14T02:57:22;2.90;;;2.10;;
76826;SDS011;65788;52.284;20.890;2023-06-14T02:59:49;3.40;;;1.90;;
76826;SDS011;65788;52.284;20.890;2023-06-14T03:02:16;3.60;;;2.00;;
76826;SDS011;65788;52.284;20.890;2023-06-14T03:04:43;3.70;;;2.30;;
76826;SDS011;65788;52.284;20.890;2023-06-14T03:07:10;4.60;;;2.20;;
76826;SDS011;65788;52.284;20.890;2023-06-14T03:09:39;3.00;;;2.00;;
76826;SDS011;65788;52.284;20.890;2023-06-14T03:12:06;3.30;;;2.10;;
76826;SDS011;65788;52.284;20.890;2023-06-14T03:14:34;3.50;;;2.30;;
76826;SDS011;65788;52.284;20.890;2023-06-14T03:17:01;3.00;;;2.20;;
76826;SDS011;65788;52.284;20.890;2023-06-14T03:19:29;3.70;;;2.50;;
76826;SDS011;65788;52.284;20.890;2023-06-14T03:21:55;3.60;;;2.30;;
76826;SDS011;65788;52.284;20.890;2023-06-14T03:24:24;4.50;;;2.50;;
76826;SDS011;65788;52.284;20.890;2023-06-14T03:26:53;3.40;;;2.20;;
76826;SDS011;65788;52.284;20.890;2023-06-14T03:29:21;3.40;;;2.10;;
76826;SDS011;65788;52.284;20.890;2023-06-14T03:32:01;3.60;;;2.40;;
76826;SDS011;65788;52.284;20.890;2023-06-14T03:34:29;3.70;;;2.10;;
76826;SDS011;65788;52.284;20.890;2023-06-14T03:36:55;3.30;;;2.10;;
76826;SDS011;65788;52.284;20.890;2023-06-14T03:39:22;4.80;;;2.10;;
76826;SDS011;65788;52.284;20.890;2023-06-14T03:41:49;3.10;;;2.00;;
76826;SDS011;65788;52.284;20.890;2023-06-14T03:44:16;3.30;;;2.40;;
76826;SDS011;65788;52.284;20.890;2023-06-14T03:46:45;3.80;;;2.20;;
76826;SDS011;65788;52.284;20.890;2023-06-14T03:49:12;3.70;;;2.40;;
76826;SDS011;65788;52.284;20.890;2023-06-14T03:51:39;3.30;;;2.30;;
76826;SDS011;65788;52.284;20.890;2023-06-14T03:54:07;4.40;;;2.50;;
76826;SDS011;65788;52.284;20.890;2023-06-14T03:56:34;3.70;;;2.00;;
76826;SDS011;65788;52.284;20.890;2023-06-14T03:59:01;2.90;;;2.00;;
76826;SDS011;65788;52.284;20.890;2023-06-14T04:01:28;3.10;;;2.00;;
76826;SDS011;65788;52.284;20.890;2023-06-14T04:03:56;3.00;;;2.10;;
76826;SDS011;65788;52.284;20.890;2023-06-14T04:06:24;2.60;;;1.90;;
76826;SDS011;65788;52.284;20.890;2023-06-14T04:08:58;3.70;;;2.30;;
76826;SDS011;65788;52.284;20.890;2023-06-14T04:11:30;3.40;;;2.20;;
76826;SDS011;65788;52.284;20.890;2023-06-14T04:13:58;3.30;;;2.10;;
76826;SDS011;65788;52.284;20.890;2023-06-14T04:16:26;3.20;;;2.20;;
76826;SDS011;65788;52.284;20.890;2023-06-14T04:18:54;2.70;;;2.00;;
76826;SDS011;65788;52.284;20.890;2023-06-14T04:21:21;4.20;;;2.50;;
76826;SDS011;65788;52.284;20.890;2023-06-14T04:23:50;3.10;;;2.20;;
76826;SDS011;65788;52.284;20.890;2023-06-14T04:26:19;3.30;;;2.00;;
76826;SDS011;65788;52.284;20.890;2023-06-14T04:28:47;3.30;;;2.20;;
76826;SDS011;65788;52.284;20.890;2023-06-14T04:31:13;3.10;;;2.20;;
76826;SDS011;65788;52.284;20.890;2023-06-14T04:33:40;3.20;;;2.00;;
76826;SDS011;65788;52.284;20.890;2023-06-14T04:36:10;3.70;;;2.60;;
76826;SDS011;65788;52.284;20.890;2023-06-14T04:38:44;3.50;;;2.20;;
76826;SDS011;65788;52.284;20.890;2023-06-14T04:43:39;3.30;;;2.20;;
76826;SDS011;65788;52.284;20.890;2023-06-14T04:46:06;4.10;;;2.00;;
76826;SDS011;65788;52.284;20.890;2023-06-14T04:48:37;4.10;;;2.40;;
76826;SDS011;65788;52.284;20.890;2023-06-14T04:51:08;4.70;;;2.60;;
76826;SDS011;65788;52.284;20.890;2023-06-14T04:53:35;2.90;;;2.10;;
76826;SDS011;65788;52.284;20.890;2023-06-14T04:56:03;3.20;;;2.60;;
76826;SDS011;65788;52.284;20.890;2023-06-14T04:58:30;2.90;;;2.10;;
76826;SDS011;65788;52.284;20.890;2023-06-14T05:00:58;2.80;;;2.00;;
76826;SDS011;65788;52.284;20.890;2023-06-14T05:03:25;3.20;;;2.00;;
76826;SDS011;65788;52.284;20.890;2023-06-14T05:05:53;4.90;;;2.30;;
76826;SDS011;65788;52.284;20.890;2023-06-14T05:08:20;3.90;;;2.10;;
76826;SDS011;65788;52.284;20.890;2023-06-14T05:10:50;4.10;;;2.10;;
76826;SDS011;65788;52.284;20.890;2023-06-14T05:13:17;3.50;;;2.50;;
76826;SDS011;65788;52.284;20.890;2023-06-14T05:15:44;3.50;;;2.20;;
76826;SDS011;65788;52.284;20.890;2023-06-14T05:18:11;4.20;;;2.40;;
76826;SDS011;65788;52.284;20.890;2023-06-14T05:20:39;5.40;;;2.40;;
76826;SDS011;65788;52.284;20.890;2023-06-14T05:25:35;4.60;;;2.40;;
76826;SDS011;65788;52.284;20.890;2023-06-14T05:28:02;4.10;;;2.20;;
76826;SDS011;65788;52.284;20.890;2023-06-14T05:30:29;4.90;;;2.50;;
76826;SDS011;65788;52.284;20.890;2023-06-14T05:32:57;4.00;;;2.00;;
76826;SDS011;65788;52.284;20.890;2023-06-14T05:35:23;3.80;;;2.40;;
76826;SDS011;65788;52.284;20.890;2023-06-14T05:37:53;6.20;;;2.60;;
76826;SDS011;65788;52.284;20.890;2023-06-14T05:40:20;4.10;;;2.00;;
76826;SDS011;65788;52.284;20.890;2023-06-14T05:42:47;3.00;;;2.10;;
76826;SDS011;65788;52.284;20.890;2023-06-14T05:45:13;4.10;;;2.50;;
76826;SDS011;65788;52.284;20.890;2023-06-14T05:47:42;7.70;;;2.50;;
76826;SDS011;65788;52.284;20.890;2023-06-14T05:50:09;4.80;;;2.20;;
76826;SDS011;65788;52.284;20.890;2023-06-14T05:52:36;4.60;;;2.00;;
76826;SDS011;65788;52.284;20.890;2023-06-14T05:55:04;4.30;;;2.30;;
76826;SDS011;65788;52.284;20.890;2023-06-14T05:57:31;4.30;;;2.30;;
76826;SDS011;65788;52.284;20.890;2023-06-14T05:59:58;4.60;;;2.50;;
76826;SDS011;65788;52.284;20.890;2023-06-14T06:02:25;4.20;;;2.50;;
76826;SDS011;65788;52.284;20.890;2023-06-14T06:04:51;5.20;;;2.30;;
76826;SDS011;65788;52.284;20.890;2023-06-14T06:07:18;5.70;;;2.40;;
76826;SDS011;65788;52.284;20.890;2023-06-14T06:09:45;3.70;;;2.30;;
76826;SDS011;65788;52.284;20.890;2023-06-14T06:12:11;5.30;;;2.50;;
76826;SDS011;65788;52.284;20.890;2023-06-14T06:14:38;4.30;;;2.60;;
76826;SDS011;65788;52.284;20.890;2023-06-14T06:17:05;5.60;;;2.10;;
76826;SDS011;65788;52.284;20.890;2023-06-14T06:19:31;5.60;;;2.70;;
76826;SDS011;65788;52.284;20.890;2023-06-14T06:21:58;3.60;;;2.10;;
76826;SDS011;65788;52.284;20.890;2023-06-14T06:24:25;3.70;;;2.10;;
76826;SDS011;65788;52.284;20.890;2023-06-14T06:26:52;4.90;;;2.40;;
76826;SDS011;65788;52.284;20.890;2023-06-14T06:29:19;5.50;;;2.50;;
76826;SDS011;65788;52.284;20.890;2023-06-14T06:31:46;6.30;;;2.90;;
76826;SDS011;65788;52.284;20.890;2023-06-14T06:34:12;6.60;;;2.80;;
76826;SDS011;65788;52.284;20.890;2023-06-14T06:36:39;7.00;;;2.90;;
76826;SDS011;65788;52.284;20.890;2023-06-14T06:39:06;5.30;;;2.80;;
76826;SDS011;65788;52.284;20.890;2023-06-14T06:41:39;6.90;;;2.90;;
76826;SDS011;65788;52.284;20.890;2023-06-14T06:44:06;4.30;;;2.70;;
76826;SDS011;65788;52.284;20.890;2023-06-14T06:46:33;4.00;;;2.70;;
76826;SDS011;65788;52.284;20.890;2023-06-14T06:49:01;4.70;;;2.60;;
76826;SDS011;65788;52.284;20.890;2023-06-14T06:51:28;6.50;;;3.20;;
76826;SDS011;65788;52.284;20.890;2023-06-14T06:53:55;8.00;;;3.10;;
76826;SDS011;65788;52.284;20.890;2023-06-14T06:56:21;7.10;;;2.80;;
76826;SDS011;65788;52.284;20.890;2023-06-14T06:58:50;7.30;;;3.10;;
76826;SDS011;65788;52.284;20.890;2023-06-14T07:01:17;4.30;;;2.60;;
76826;SDS011;65788;52.284;20.890;2023-06-14T07:03:45;7.00;;;2.90;;
76826;SDS011;65788;52.284;20.890;2023-06-14T07:06:12;4.30;;;2.90;;
76826;SDS011;65788;52.284;20.890;2023-06-14T07:08:39;5.00;;;2.90;;
76826;SDS011;65788;52.284;20.890;2023-06-14T07:11:05;5.40;;;2.90;;
76826;SDS011;65788;52.284;20.890;2023-06-14T07:13:33;5.50;;;2.70;;
76826;SDS011;65788;52.284;20.890;2023-06-14T07:16:00;5.40;;;3.10;;
76826;SDS011;65788;52.284;20.890;2023-06-14T07:18:27;5.90;;;2.90;;
76826;SDS011;65788;52.284;20.890;2023-06-14T07:20:54;6.70;;;3.30;;
76826;SDS011;65788;52.284;20.890;2023-06-14T07:23:20;3.90;;;2.80;;
76826;SDS011;65788;52.284;20.890;2023-06-14T07:25:47;10.30;;;3.00;;
76826;SDS011;65788;52.284;20.890;2023-06-14T07:28:14;5.10;;;3.20;;
76826;SDS011;65788;52.284;20.890;2023-06-14T07:30:41;6.30;;;3.10;;
76826;SDS011;65788;52.284;20.890;2023-06-14T07:33:07;4.60;;;2.80;;
76826;SDS011;65788;52.284;20.890;2023-06-14T07:35:34;5.30;;;3.10;;
76826;SDS011;65788;52.284;20.890;2023-06-14T07:38:01;4.60;;;2.80;;
76826;SDS011;65788;52.284;20.890;2023-06-14T07:40:28;6.40;;;3.00;;
76826;SDS011;65788;52.284;20.890;2023-06-14T07:42:54;6.80;;;3.30;;
76826;SDS011;65788;52.284;20.890;2023-06-14T07:45:21;5.30;;;3.30;;
76826;SDS011;65788;52.284;20.890;2023-06-14T07:47:48;4.50;;;2.90;;
76826;SDS011;65788;52.284;20.890;2023-06-14T07:50:14;5.50;;;3.10;;
76826;SDS011;65788;52.284;20.890;2023-06-14T07:52:41;6.20;;;2.90;;
76826;SDS011;65788;52.284;20.890;2023-06-14T07:55:08;6.30;;;3.30;;
76826;SDS011;65788;52.284;20.890;2023-06-14T07:57:35;6.80;;;3.60;;
76826;SDS011;65788;52.284;20.890;2023-06-14T08:00:03;7.90;;;3.80;;
76826;SDS011;65788;52.284;20.890;2023-06-14T08:02:33;5.20;;;3.20;;
76826;SDS011;65788;52.284;20.890;2023-06-14T08:04:59;9.10;;;3.90;;
76826;SDS011;65788;52.284;20.890;2023-06-14T08:07:26;7.90;;;3.60;;
76826;SDS011;65788;52.284;20.890;2023-06-14T08:09:53;9.00;;;3.80;;
76826;SDS011;65788;52.284;20.890;2023-06-14T08:12:20;7.50;;;3.40;;
76826;SDS011;65788;52.284;20.890;2023-06-14T08:14:46;9.00;;;3.80;;
76826;SDS011;65788;52.284;20.890;2023-06-14T08:17:13;11.80;;;4.60;;
76826;SDS011;65788;52.284;20.890;2023-06-14T08:19:40;10.40;;;3.90;;
76826;SDS011;65788;52.284;20.890;2023-06-14T08:22:07;9.10;;;4.60;;
76826;SDS011;65788;52.284;20.890;2023-06-14T08:24:34;10.10;;;4.20;;
76826;SDS011;65788;52.284;20.890;2023-06-14T08:27:01;7.20;;;4.50;;
76826;SDS011;65788;52.284;20.890;2023-06-14T08:29:28;7.30;;;3.80;;
76826;SDS011;65788;52.284;20.890;2023-06-14T08:31:58;7.30;;;4.00;;
76826;SDS011;65788;52.284;20.890;2023-06-14T08:34:25;8.20;;;4.00;;
76826;SDS011;65788;52.284;20.890;2023-06-14T08:36:52;8.70;;;3.70;;
76826;SDS011;65788;52.284;20.890;2023-06-14T08:39:19;8.00;;;3.90;;
76826;SDS011;65788;52.284;20.890;2023-06-14T08:41:46;6.00;;;3.70;;
76826;SDS011;65788;52.284;20.890;2023-06-14T08:44:17;6.00;;;3.50;;
76826;SDS011;65788;52.284;20.890;2023-06-14T08:46:44;7.40;;;3.60;;
76826;SDS011;65788;52.284;20.890;2023-06-14T08:49:14;8.60;;;4.00;;
76826;SDS011;65788;52.284;20.890;2023-06-14T08:51:43;8.10;;;3.60;;
76826;SDS011;65788;52.284;20.890;2023-06-14T08:54:11;6.40;;;3.50;;
76826;SDS011;65788;52.284;20.890;2023-06-14T08:56:39;8.60;;;3.60;;
76826;SDS011;65788;52.284;20.890;2023-06-14T08:59:07;7.60;;;3.80;;
76826;SDS011;65788;52.284;20.890;2023-06-14T09:01:36;6.10;;;4.00;;
76826;SDS011;65788;52.284;20.890;2023-06-14T09:04:03;6.90;;;3.60;;
76826;SDS011;65788;52.284;20.890;2023-06-14T09:06:32;11.10;;;4.10;;
76826;SDS011;65788;52.284;20.890;2023-06-14T09:08:59;10.60;;;4.50;;
76826;SDS011;65788;52.284;20.890;2023-06-14T09:11:26;7.70;;;4.50;;
76826;SDS011;65788;52.284;20.890;2023-06-14T09:13:53;5.90;;;4.00;;
76826;SDS011;65788;52.284;20.890;2023-06-14T09:16:19;7.10;;;4.50;;
76826;SDS011;65788;52.284;20.890;2023-06-14T09:18:47;7.90;;;3.90;;
76826;SDS011;65788;52.284;20.890;2023-06-14T09:21:14;6.40;;;4.30;;
76826;SDS011;65788;52.284;20.890;2023-06-14T09:23:43;9.20;;;4.60;;
76826;SDS011;65788;52.284;20.890;2023-06-14T09:26:12;9.00;;;5.00;;
76826;SDS011;65788;52.284;20.890;2023-06-14T09:31:14;7.50;;;4.20;;
76826;SDS011;65788;52.284;20.890;2023-06-14T09:33:43;6.20;;;4.40;;
76826;SDS011;65788;52.284;20.890;2023-06-14T09:36:17;7.40;;;4.40;;
76826;SDS011;65788;52.284;20.890;2023-06-14T09:38:53;11.00;;;4.60;;
76826;SDS011;65788;52.284;20.890;2023-06-14T09:41:37;7.80;;;4.50;;
76826;SDS011;65788;52.284;20.890;2023-06-14T09:44:06;7.20;;;4.60;;
76826;SDS011;65788;52.284;20.890;2023-06-14T09:46:35;7.70;;;4.00;;
76826;SDS011;65788;52.284;20.890;2023-06-14T09:49:03;5.20;;;3.80;;
76826;SDS011;65788;52.284;20.890;2023-06-14T09:51:30;10.00;;;4.70;;
76826;SDS011;65788;52.284;20.890;2023-06-14T09:54:01;7.40;;;4.10;;
76826;SDS011;65788;52.284;20.890;2023-06-14T09:56:37;6.90;;;3.90;;
76826;SDS011;65788;52.284;20.890;2023-06-14T09:59:09;6.30;;;3.90;;
76826;SDS011;65788;52.284;20.890;2023-06-14T10:01:39;7.40;;;4.00;;
76826;SDS011;65788;52.284;20.890;2023-06-14T10:04:09;6.50;;;3.90;;
76826;SDS011;65788;52.284;20.890;2023-06-14T10:09:07;6.40;;;3.80;;
76826;SDS011;65788;52.284;20.890;2023-06-14T10:11:36;5.80;;;3.80;;
76826;SDS011;65788;52.284;20.890;2023-06-14T10:14:07;9.40;;;3.90;;
76826;SDS011;65788;52.284;20.890;2023-06-14T10:16:36;8.40;;;3.90;;
76826;SDS011;65788;52.284;20.890;2023-06-14T10:19:29;6.90;;;4.10;;
76826;SDS011;65788;52.284;20.890;2023-06-14T10:22:23;9.30;;;3.90;;
76826;SDS011;65788;52.284;20.890;2023-06-14T10:24:57;8.10;;;4.30;;
76826;SDS011;65788;52.284;20.890;2023-06-14T10:27:23;6.30;;;4.50;;
76826;SDS011;65788;52.284;20.890;2023-06-14T10:32:21;6.30;;;3.80;;
76826;SDS011;65788;52.284;20.890;2023-06-14T10:34:56;6.50;;;4.10;;
76826;SDS011;65788;52.284;20.890;2023-06-14T10:37:24;5.50;;;4.00;;
76826;SDS011;65788;52.284;20.890;2023-06-14T10:39:51;6.70;;;4.30;;
76826;SDS011;65788;52.284;20.890;2023-06-14T10:42:19;6.90;;;3.40;;
76826;SDS011;65788;52.284;20.890;2023-06-14T10:52:28;7.90;;;3.90;;
76826;SDS011;65788;52.284;20.890;2023-06-14T10:54:58;6.10;;;4.10;;
76826;SDS011;65788;52.284;20.890;2023-06-14T11:00:13;8.10;;;4.10;;
76826;SDS011;65788;52.284;20.890;2023-06-14T11:02:46;7.40;;;3.80;;
76826;SDS011;65788;52.284;20.890;2023-06-14T11:05:14;6.10;;;3.70;;
76826;SDS011;65788;52.284;20.890;2023-06-14T11:10:35;4.70;;;3.50;;
76826;SDS011;65788;52.284;20.890;2023-06-14T11:13:07;5.00;;;3.50;;
76826;SDS011;65788;52.284;20.890;2023-06-14T11:15:37;6.50;;;3.80;;
76826;SDS011;65788;52.284;20.890;2023-06-14T11:18:05;5.50;;;3.60;;
76826;SDS011;65788;52.284;20.890;2023-06-14T11:23:02;6.70;;;3.60;;
76826;SDS011;65788;52.284;20.890;2023-06-14T11:25:29;7.80;;;3.50;;
76826;SDS011;65788;52.284;20.890;2023-06-14T11:27:56;7.30;;;3.40;;
76826;SDS011;65788;52.284;20.890;2023-06-14T11:30:24;7.50;;;3.40;;
76826;SDS011;65788;52.284;20.890;2023-06-14T11:32:55;7.70;;;4.00;;
76826;SDS011;65788;52.284;20.890;2023-06-14T11:35:22;5.70;;;3.40;;
76826;SDS011;65788;52.284;20.890;2023-06-14T11:37:53;8.00;;;3.90;;
76826;SDS011;65788;52.284;20.890;2023-06-14T11:40:25;8.00;;;3.40;;
76826;SDS011;65788;52.284;20.890;2023-06-14T11:43:00;8.00;;;3.70;;
76826;SDS011;65788;52.284;20.890;2023-06-14T11:45:28;8.30;;;4.20;;
76826;SDS011;65788;52.284;20.890;2023-06-14T11:47:57;7.50;;;4.00;;
76826;SDS011;65788;52.284;20.890;2023-06-14T11:50:25;10.10;;;3.40;;
76826;SDS011;65788;52.284;20.890;2023-06-14T11:52:56;5.60;;;3.50;;
76826;SDS011;65788;52.284;20.890;2023-06-14T11:55:24;9.40;;;3.70;;
76826;SDS011;65788;52.284;20.890;2023-06-14T11:57:53;7.00;;;3.50;;
76826;SDS011;65788;52.284;20.890;2023-06-14T12:00:25;5.50;;;3.60;;
76826;SDS011;65788;52.284;20.890;2023-06-14T12:02:52;4.90;;;3.50;;
76826;SDS011;65788;52.284;20.890;2023-06-14T12:05:22;8.10;;;3.50;;
76826;SDS011;65788;52.284;20.890;2023-06-14T12:07:50;7.60;;;3.40;;
76826;SDS011;65788;52.284;20.890;2023-06-14T12:10:25;6.80;;;3.40;;
76826;SDS011;65788;52.284;20.890;2023-06-14T12:12:56;9.00;;;3.00;;
76826;SDS011;65788;52.284;20.890;2023-06-14T12:15:28;4.80;;;3.30;;
76826;SDS011;65788;52.284;20.890;2023-06-14T12:17:57;9.70;;;3.20;;
76826;SDS011;65788;52.284;20.890;2023-06-14T12:20:28;6.10;;;3.30;;
76826;SDS011;65788;52.284;20.890;2023-06-14T12:22:57;4.90;;;3.20;;
76826;SDS011;65788;52.284;20.890;2023-06-14T12:25:27;5.80;;;3.00;;
76826;SDS011;65788;52.284;20.890;2023-06-14T12:27:58;10.40;;;3.40;;
76826;SDS011;65788;52.284;20.890;2023-06-14T12:32:53;5.30;;;3.50;;
76826;SDS011;65788;52.284;20.890;2023-06-14T12:35:19;10.70;;;3.20;;
76826;SDS011;65788;52.284;20.890;2023-06-14T12:37:46;10.10;;;3.70;;
76826;SDS011;65788;52.284;20.890;2023-06-14T12:40:13;5.40;;;3.10;;
76826;SDS011;65788;52.284;20.890;2023-06-14T12:42:40;7.80;;;3.20;;
76826;SDS011;65788;52.284;20.890;2023-06-14T12:45:10;10.90;;;3.20;;
76826;SDS011;65788;52.284;20.890;2023-06-14T12:47:37;5.80;;;3.20;;
76826;SDS011;65788;52.284;20.890;2023-06-14T12:50:04;6.50;;;3.10;;
76826;SDS011;65788;52.284;20.890;2023-06-14T12:52:32;6.00;;;3.40;;
76826;SDS011;65788;52.284;20.890;2023-06-14T12:55:03;8.80;;;3.40;;
76826;SDS011;65788;52.284;20.890;2023-06-14T12:57:30;8.60;;;3.10;;
76826;SDS011;65788;52.284;20.890;2023-06-14T12:59:59;7.60;;;3.40;;
76826;SDS011;65788;52.284;20.890;2023-06-14T13:02:26;6.00;;;2.90;;
76826;SDS011;65788;52.284;20.890;2023-06-14T13:04:54;5.90;;;3.10;;
76826;SDS011;65788;52.284;20.890;2023-06-14T13:07:21;5.20;;;2.80;;
76826;SDS011;65788;52.284;20.890;2023-06-14T13:09:48;5.60;;;2.60;;
76826;SDS011;65788;52.284;20.890;2023-06-14T13:12:15;5.20;;;3.10;;
76826;SDS011;65788;52.284;20.890;2023-06-14T13:14:42;6.90;;;3.00;;
76826;SDS011;65788;52.284;20.890;2023-06-14T13:17:09;4.30;;;2.80;;
76826;SDS011;65788;52.284;20.890;2023-06-14T13:19:36;7.70;;;2.90;;
76826;SDS011;65788;52.284;20.890;2023-06-14T13:22:03;4.20;;;2.70;;
76826;SDS011;65788;52.284;20.890;2023-06-14T13:24:31;7.00;;;3.00;;
76826;SDS011;65788;52.284;20.890;2023-06-14T13:26:58;6.10;;;3.00;;
76826;SDS011;65788;52.284;20.890;2023-06-14T13:29:24;6.40;;;2.70;;
76826;SDS011;65788;52.284;20.890;2023-06-14T13:31:51;6.00;;;2.70;;
76826;SDS011;65788;52.284;20.890;2023-06-14T13:34:19;4.80;;;2.70;;
76826;SDS011;65788;52.284;20.890;2023-06-14T13:36:46;6.30;;;3.00;;
76826;SDS011;65788;52.284;20.890;2023-06-14T13:39:13;8.30;;;3.00;;
76826;SDS011;65788;52.284;20.890;2023-06-14T13:41:40;5.90;;;3.00;;
76826;SDS011;65788;52.284;20.890;2023-06-14T13:44:07;5.60;;;2.80;;
76826;SDS011;65788;52.284;20.890;2023-06-14T13:46:33;5.30;;;2.80;;
76826;SDS011;65788;52.284;20.890;2023-06-14T13:49:00;4.90;;;2.80;;
76826;SDS011;65788;52.284;20.890;2023-06-14T13:51:28;6.80;;;2.90;;
76826;SDS011;65788;52.284;20.890;2023-06-14T13:53:55;5.60;;;3.10;;
76826;SDS011;65788;52.284;20.890;2023-06-14T13:56:22;8.00;;;3.20;;
76826;SDS011;65788;52.284;20.890;2023-06-14T13:58:51;7.10;;;3.10;;
76826;SDS011;65788;52.284;20.890;2023-06-14T14:01:18;4.70;;;2.80;;
76826;SDS011;65788;52.284;20.890;2023-06-14T14:03:49;7.50;;;3.20;;
76826;SDS011;65788;52.284;20.890;2023-06-14T14:06:16;7.10;;;3.30;;
76826;SDS011;65788;52.284;20.890;2023-06-14T14:08:43;8.90;;;3.80;;
76826;SDS011;65788;52.284;20.890;2023-06-14T14:11:10;6.90;;;3.00;;
76826;SDS011;65788;52.284;20.890;2023-06-14T14:13:38;8.80;;;3.60;;
76826;SDS011;65788;52.284;20.890;2023-06-14T14:16:06;7.30;;;3.00;;
76826;SDS011;65788;52.284;20.890;2023-06-14T14:18:32;7.40;;;3.20;;
76826;SDS011;65788;52.284;20.890;2023-06-14T14:20:59;6.80;;;3.20;;
76826;SDS011;65788;52.284;20.890;2023-06-14T14:23:27;8.20;;;3.20;;
76826;SDS011;65788;52.284;20.890;2023-06-14T14:25:54;8.50;;;3.20;;
76826;SDS011;65788;52.284;20.890;2023-06-14T14:28:23;6.30;;;3.00;;
76826;SDS011;65788;52.284;20.890;2023-06-14T14:30:49;6.20;;;3.20;;
76826;SDS011;65788;52.284;20.890;2023-06-14T14:33:16;5.70;;;2.90;;
76826;SDS011;65788;52.284;20.890;2023-06-14T14:35:46;5.70;;;3.40;;
76826;SDS011;65788;52.284;20.890;2023-06-14T14:38:14;5.00;;;3.20;;
76826;SDS011;65788;52.284;20.890;2023-06-14T14:40:44;8.70;;;3.60;;
76826;SDS011;65788;52.284;20.890;2023-06-14T14:43:11;9.60;;;3.40;;
76826;SDS011;65788;52.284;20.890;2023-06-14T14:45:38;8.10;;;3.20;;
76826;SDS011;65788;52.284;20.890;2023-06-14T14:48:04;8.10;;;3.70;;
76826;SDS011;65788;52.284;20.890;2023-06-14T14:50:32;6.00;;;3.00;;
76826;SDS011;65788;52.284;20.890;2023-06-14T14:52:59;4.60;;;2.80;;
76826;SDS011;65788;52.284;20.890;2023-06-14T14:55:26;7.30;;;3.00;;
76826;SDS011;65788;52.284;20.890;2023-06-14T14:57:53;9.60;;;3.00;;
76826;SDS011;65788;52.284;20.890;2023-06-14T15:00:20;5.50;;;3.20;;
76826;SDS011;65788;52.284;20.890;2023-06-14T15:02:47;4.50;;;3.00;;
76826;SDS011;65788;52.284;20.890;2023-06-14T15:05:14;6.10;;;3.10;;
76826;SDS011;65788;52.284;20.890;2023-06-14T15:07:41;7.70;;;3.10;;
76826;SDS011;65788;52.284;20.890;2023-06-14T15:10:08;6.30;;;2.70;;